sensor_id;sensor_type;location;lat;lon;timestamp;P1;durP1;ratioP1;P2;durP2;ratioP2
64502;SDS011;50971;51.940;21.258;2024-02-28T00:04:25;25.20;;;13.50;;
64502;SDS011;50971;51.940;21.258;2024-02-28T00:14:26;21.80;;;13.00;;
64502;SDS011;50971;51.940;21.258;2024-02-28T00:24:28;25.40;;;13.70;;
64502;SDS011;50971;51.940;21.258;2024-02-28T00:34:31;21.60;;;11.80;;
64502;SDS011;50971;51.940;21.258;2024-02-28T00:44:33;23.00;;;12.80;;
64502;SDS011;50971;51.940;21.258;2024-02-28T00:54:35;25.40;;;14.00;;
64502;SDS011;50971;51.940;21.258;2024-02-28T01:04:36;28.50;;;16.40;;
64502;SDS011;50971;51.940;21.258;2024-02-28T01:14:38;22.20;;;12.20;;
64502;SDS011;50971;51.940;21.258;2024-02-28T01:24:40;22.60;;;12.20;;
64502;SDS011;50971;51.940;21.258;2024-02-28T01:34:42;31.10;;;16.70;;
64502;SDS011;50971;51.940;21.258;2024-02-28T01:44:44;30.50;;;16.90;;
64502;SDS011;50971;51.940;21.258;2024-02-28T01:54:50;26.50;;;15.30;;
64502;SDS011;50971;51.940;21.258;2024-02-28T02:04:52;28.70;;;16.10;;
64502;SDS011;50971;51.940;21.258;2024-02-28T02:14:54;26.70;;;14.30;;
64502;SDS011;50971;51.940;21.258;2024-02-28T02:24:56;24.60;;;14.80;;
64502;SDS011;50971;51.940;21.258;2024-02-28T02:34:58;24.50;;;14.70;;
64502;SDS011;50971;51.940;21.258;2024-02-28T02:45:00;24.90;;;13.40;;
64502;SDS011;50971;51.940;21.258;2024-02-28T02:55:01;29.90;;;17.40;;
64502;SDS011;50971;51.940;21.258;2024-02-28T03:05:04;29.80;;;16.50;;
64502;SDS011;50971;51.940;21.258;2024-02-28T03:15:06;28.10;;;15.30;;
64502;SDS011;50971;51.940;21.258;2024-02-28T03:25:09;18.80;;;11.50;;
64502;SDS011;50971;51.940;21.258;2024-02-28T03:35:11;21.80;;;12.40;;
64502;SDS011;50971;51.940;21.258;2024-02-28T03:45:12;27.80;;;16.20;;
64502;SDS011;50971;51.940;21.258;2024-02-28T03:55:15;27.50;;;14.60;;
64502;SDS011;50971;51.940;21.258;2024-02-28T04:05:17;23.90;;;13.30;;
64502;SDS011;50971;51.940;21.258;2024-02-28T04:15:19;17.70;;;9.70;;
64502;SDS011;50971;51.940;21.258;2024-02-28T04:25:21;26.00;;;14.00;;
64502;SDS011;50971;51.940;21.258;2024-02-28T04:35:23;26.90;;;15.20;;
64502;SDS011;50971;51.940;21.258;2024-02-28T04:45:25;21.40;;;11.60;;
64502;SDS011;50971;51.940;21.258;2024-02-28T04:55:26;24.50;;;14.30;;
64502;SDS011;50971;51.940;21.258;2024-02-28T05:05:28;29.60;;;15.70;;
64502;SDS011;50971;51.940;21.258;2024-02-28T05:15:30;29.30;;;12.70;;
64502;SDS011;50971;51.940;21.258;2024-02-28T05:25:32;23.90;;;14.30;;
64502;SDS011;50971;51.940;21.258;2024-02-28T05:35:33;30.00;;;14.80;;
64502;SDS011;50971;51.940;21.258;2024-02-28T05:45:35;26.30;;;13.90;;
64502;SDS011;50971;51.940;21.258;2024-02-28T05:55:37;25.40;;;15.70;;
64502;SDS011;50971;51.940;21.258;2024-02-28T06:05:38;23.00;;;13.10;;
64502;SDS011;50971;51.940;21.258;2024-02-28T06:15:44;25.10;;;16.00;;
64502;SDS011;50971;51.940;21.258;2024-02-28T06:25:45;25.30;;;14.40;;
64502;SDS011;50971;51.940;21.258;2024-02-28T06:35:47;21.10;;;14.20;;
64502;SDS011;50971;51.940;21.258;2024-02-28T06:45:49;30.40;;;17.30;;
64502;SDS011;50971;51.940;21.258;2024-02-28T06:55:51;27.40;;;15.80;;
64502;SDS011;50971;51.940;21.258;2024-02-28T07:05:53;23.40;;;13.40;;
64502;SDS011;50971;51.940;21.258;2024-02-28T07:15:56;27.30;;;16.50;;
64502;SDS011;50971;51.940;21.258;2024-02-28T07:25:59;33.60;;;18.90;;
64502;SDS011;50971;51.940;21.258;2024-02-28T07:36:13;26.50;;;17.10;;
64502;SDS011;50971;51.940;21.258;2024-02-28T07:46:14;28.90;;;16.80;;
64502;SDS011;50971;51.940;21.258;2024-02-28T07:56:16;30.00;;;16.40;;
64502;SDS011;50971;51.940;21.258;2024-02-28T08:06:19;29.30;;;18.40;;
64502;SDS011;50971;51.940;21.258;2024-02-28T08:16:21;22.90;;;14.90;;
64502;SDS011;50971;51.940;21.258;2024-02-28T08:26:23;29.10;;;17.40;;
64502;SDS011;50971;51.940;21.258;2024-02-28T08:36:25;27.70;;;16.80;;
64502;SDS011;50971;51.940;21.258;2024-02-28T08:46:27;33.80;;;20.40;;
64502;SDS011;50971;51.940;21.258;2024-02-28T08:56:29;29.60;;;18.00;;
64502;SDS011;50971;51.940;21.258;2024-02-28T09:06:31;28.80;;;17.80;;
64502;SDS011;50971;51.940;21.258;2024-02-28T09:16:33;31.20;;;19.40;;
64502;SDS011;50971;51.940;21.258;2024-02-28T09:26:38;30.70;;;17.20;;
64502;SDS011;50971;51.940;21.258;2024-02-28T09:36:41;33.00;;;18.80;;
64502;SDS011;50971;51.940;21.258;2024-02-28T09:46:46;29.10;;;18.00;;
64502;SDS011;50971;51.940;21.258;2024-02-28T09:56:52;30.30;;;18.90;;
64502;SDS011;50971;51.940;21.258;2024-02-28T10:06:54;30.10;;;18.20;;
64502;SDS011;50971;51.940;21.258;2024-02-28T10:16:56;32.80;;;18.90;;
64502;SDS011;50971;51.940;21.258;2024-02-28T10:27:00;30.20;;;19.30;;
64502;SDS011;50971;51.940;21.258;2024-02-28T10:37:03;29.50;;;17.50;;
64502;SDS011;50971;51.940;21.258;2024-02-28T10:47:07;24.40;;;14.80;;
64502;SDS011;50971;51.940;21.258;2024-02-28T10:57:13;32.20;;;18.20;;
64502;SDS011;50971;51.940;21.258;2024-02-28T11:07:21;31.70;;;18.30;;
64502;SDS011;50971;51.940;21.258;2024-02-28T11:17:26;26.80;;;18.00;;
64502;SDS011;50971;51.940;21.258;2024-02-28T11:27:29;33.70;;;20.90;;
64502;SDS011;50971;51.940;21.258;2024-02-28T11:37:31;32.40;;;18.10;;
64502;SDS011;50971;51.940;21.258;2024-02-28T11:47:34;35.70;;;20.20;;
64502;SDS011;50971;51.940;21.258;2024-02-28T11:57:37;32.50;;;17.70;;
64502;SDS011;50971;51.940;21.258;2024-02-28T12:07:39;22.00;;;13.10;;
64502;SDS011;50971;51.940;21.258;2024-02-28T12:17:42;17.30;;;11.10;;
64502;SDS011;50971;51.940;21.258;2024-02-28T12:27:44;17.00;;;10.90;;
64502;SDS011;50971;51.940;21.258;2024-02-28T12:37:46;13.40;;;9.00;;
64502;SDS011;50971;51.940;21.258;2024-02-28T13:07:53;13.20;;;8.40;;
64502;SDS011;50971;51.940;21.258;2024-02-28T13:17:55;14.30;;;8.60;;
64502;SDS011;50971;51.940;21.258;2024-02-28T13:27:57;14.70;;;9.80;;
64502;SDS011;50971;51.940;21.258;2024-02-28T13:37:59;17.40;;;10.80;;
64502;SDS011;50971;51.940;21.258;2024-02-28T13:48:02;21.00;;;12.80;;
64502;SDS011;50971;51.940;21.258;2024-02-28T14:08:08;26.70;;;16.90;;
64502;SDS011;50971;51.940;21.258;2024-02-28T14:18:11;31.20;;;16.90;;
64502;SDS011;50971;51.940;21.258;2024-02-28T14:28:13;43.20;;;22.00;;
64502;SDS011;50971;51.940;21.258;2024-02-28T14:38:15;51.00;;;25.50;;
64502;SDS011;50971;51.940;21.258;2024-02-28T14:48:17;55.10;;;29.40;;
64502;SDS011;50971;51.940;21.258;2024-02-28T14:58:19;44.60;;;22.70;;
64502;SDS011;50971;51.940;21.258;2024-02-28T15:08:20;42.90;;;22.30;;
64502;SDS011;50971;51.940;21.258;2024-02-28T15:18:22;28.70;;;16.20;;
64502;SDS011;50971;51.940;21.258;2024-02-28T15:28:24;26.80;;;15.70;;
64502;SDS011;50971;51.940;21.258;2024-02-28T16:55:36;17.40;;;9.30;;
64502;SDS011;50971;51.940;21.258;2024-02-28T17:05:37;17.00;;;9.50;;
64502;SDS011;50971;51.940;21.258;2024-02-28T17:15:41;17.20;;;9.70;;
64502;SDS011;50971;51.940;21.258;2024-02-28T17:25:45;24.10;;;13.20;;
64502;SDS011;50971;51.940;21.258;2024-02-28T17:35:47;12.60;;;7.20;;
64502;SDS011;50971;51.940;21.258;2024-02-28T17:45:49;23.10;;;11.60;;
64502;SDS011;50971;51.940;21.258;2024-02-28T17:55:51;20.80;;;11.80;;
64502;SDS011;50971;51.940;21.258;2024-02-28T18:05:54;20.90;;;12.20;;
64502;SDS011;50971;51.940;21.258;2024-02-28T18:15:55;30.70;;;18.20;;
64502;SDS011;50971;51.940;21.258;2024-02-28T18:25:57;23.60;;;13.10;;
64502;SDS011;50971;51.940;21.258;2024-02-28T18:35:59;20.90;;;10.60;;
64502;SDS011;50971;51.940;21.258;2024-02-28T18:46:01;31.60;;;19.00;;
64502;SDS011;50971;51.940;21.258;2024-02-28T18:56:03;25.20;;;13.80;;
64502;SDS011;50971;51.940;21.258;2024-02-28T19:06:09;27.80;;;16.20;;
64502;SDS011;50971;51.940;21.258;2024-02-28T19:16:12;26.20;;;12.30;;
64502;SDS011;50971;51.940;21.258;2024-02-28T19:26:15;26.50;;;14.60;;
64502;SDS011;50971;51.940;21.258;2024-02-28T19:36:18;22.80;;;12.50;;
64502;SDS011;50971;51.940;21.258;2024-02-28T19:46:20;21.40;;;12.70;;
64502;SDS011;50971;51.940;21.258;2024-02-28T19:56:23;24.50;;;13.40;;
64502;SDS011;50971;51.940;21.258;2024-02-28T20:06:27;20.20;;;11.10;;
64502;SDS011;50971;51.940;21.258;2024-02-28T20:16:28;20.50;;;11.40;;
64502;SDS011;50971;51.940;21.258;2024-02-28T20:26:30;23.00;;;12.20;;
64502;SDS011;50971;51.940;21.258;2024-02-28T20:36:32;19.70;;;12.10;;
64502;SDS011;50971;51.940;21.258;2024-02-28T20:46:38;21.30;;;12.50;;
64502;SDS011;50971;51.940;21.258;2024-02-28T20:56:40;20.50;;;10.70;;
64502;SDS011;50971;51.940;21.258;2024-02-28T21:06:42;19.60;;;10.80;;
64502;SDS011;50971;51.940;21.258;2024-02-28T21:16:44;14.80;;;9.10;;
64502;SDS011;50971;51.940;21.258;2024-02-28T21:26:46;18.70;;;10.30;;
64502;SDS011;50971;51.940;21.258;2024-02-28T21:36:48;16.00;;;9.10;;
64502;SDS011;50971;51.940;21.258;2024-02-28T21:46:49;19.30;;;9.20;;
64502;SDS011;50971;51.940;21.258;2024-02-28T21:56:51;23.40;;;11.60;;
64502;SDS011;50971;51.940;21.258;2024-02-28T22:06:53;22.00;;;11.60;;
64502;SDS011;50971;51.940;21.258;2024-02-28T22:16:55;15.00;;;9.00;;
64502;SDS011;50971;51.940;21.258;2024-02-28T22:26:57;22.60;;;12.80;;
64502;SDS011;50971;51.940;21.258;2024-02-28T22:36:58;19.20;;;11.30;;
64502;SDS011;50971;51.940;21.258;2024-02-28T22:47:02;17.30;;;9.60;;
64502;SDS011;50971;51.940;21.258;2024-02-28T22:57:04;20.70;;;10.90;;
64502;SDS011;50971;51.940;21.258;2024-02-28T23:07:05;21.50;;;11.50;;
64502;SDS011;50971;51.940;21.258;2024-02-28T23:17:07;17.70;;;10.40;;
64502;SDS011;50971;51.940;21.258;2024-02-28T23:27:11;24.70;;;13.30;;
64502;SDS011;50971;51.940;21.258;2024-02-28T23:37:15;21.20;;;11.40;;
64502;SDS011;50971;51.940;21.258;2024-02-28T23:47:17;19.60;;;10.40;;
64502;SDS011;50971;51.940;21.258;2024-02-28T23:57:19;24.60;;;12.20;;
